Time;durP1;ratioP1;P1;durP2;ratioP2;P2;SDS_P1;SDS_P2;PMS_P1;PMS_P2;Temp;Humidity;BMP_temperature;BMP_pressure;BME280_temperature;BME280_humidity;BME280_pressure;Samples;Min_cycle;Max_cycle;Signal;HPM_P1;HPM_P2
2023/03/09 07:35:05;;;;;;;2.40;2.40;;;4.70;99.90;7.60;99327.00;;;;6270574;22;1354849;-71
2023/03/09 07:37:31;;;;;;;3.97;3.60;;;5.00;99.90;7.20;99318.00;;;;6250764;22;20156;-71
2023/03/09 07:40:04;;;;;;;2.93;2.83;;;5.00;99.90;7.90;99314.00;;;;6251005;22;20220;-70
2023/03/09 07:42:42;;;;;;;4.83;4.63;;;5.20;99.90;7.50;99319.00;;;;6226142;22;20249;-70
2023/03/09 07:45:11;;;;;;;2.50;2.50;;;5.30;99.90;6.80;99311.00;;;;6251835;22;20163;-71
2023/03/09 07:47:45;;;;;;;2.93;2.83;;;4.80;99.90;7.40;99336.00;;;;6250688;22;20574;-71
2023/03/09 07:50:15;;;;;;;2.80;2.70;;;5.10;99.90;7.20;99299.00;;;;6251906;22;20143;-71
2023/03/09 07:52:42;;;;;;;2.80;2.70;;;4.90;99.90;7.10;99313.00;;;;6250546;22;20622;-71
2023/03/09 07:55:13;;;;;;;3.00;2.90;;;4.90;99.90;6.60;99343.00;;;;6251407;22;20173;-71
2023/03/09 07:57:45;;;;;;;3.07;2.97;;;4.70;99.90;6.90;99351.00;;;;6251100;22;20145;-71
2023/03/09 08:00:20;;;;;;;2.80;2.70;;;4.70;99.90;6.60;99343.00;;;;6250953;22;20225;-70
2023/03/09 08:02:47;;;;;;;2.60;2.50;;;4.70;99.90;7.80;99341.00;;;;6252155;22;20219;-71
2023/03/09 08:05:18;;;;;;;2.67;2.57;;;5.10;99.90;7.80;99329.00;;;;6225083;22;20472;-70
2023/03/09 08:07:51;;;;;;;3.20;3.10;;;5.30;99.90;7.50;99341.00;;;;6250895;22;20197;-70
2023/03/09 08:10:19;;;;;;;3.60;3.50;;;5.30;99.90;7.20;99345.00;;;;6250979;22;20147;-71
2023/03/09 08:12:51;;;;;;;4.70;4.50;;;5.30;99.90;7.20;99347.00;;;;6225651;22;20162;-71
2023/03/09 08:15:22;;;;;;;3.90;3.70;;;5.20;99.90;7.70;99338.00;;;;6277784;22;20219;-71
2023/03/09 08:17:51;;;;;;;3.90;3.70;;;5.30;99.90;7.30;99353.00;;;;6251717;22;20224;-70
2023/03/09 08:20:20;;;;;;;2.70;2.60;;;5.50;99.90;7.70;99360.00;;;;6250926;22;20193;-71
2023/03/09 08:22:48;;;;;;;2.70;2.60;;;5.50;99.90;8.10;99368.00;;;;6250052;22;20538;-71
2023/03/09 08:25:21;;;;;;;3.20;3.10;;;5.60;99.90;7.40;99403.00;;;;6251322;22;20145;-71
2023/03/09 08:27:52;;;;;;;2.77;2.67;;;5.70;99.90;7.40;99372.00;;;;6251050;22;20163;-71
2023/03/09 08:30:27;;;;;;;3.77;3.67;;;5.50;99.90;8.10;99398.00;;;;6252147;22;20179;-71
2023/03/09 08:32:54;;;;;;;4.47;4.37;;;5.60;99.90;7.60;99391.00;;;;6277837;22;20141;-71
2023/03/09 08:35:35;;;;;;;4.20;3.87;;;5.80;99.90;6.30;99384.00;;;;6215334;23;20213;-71
2023/03/09 08:38:06;;;;;;;3.90;3.70;;;5.30;99.90;7.50;99395.00;;;;6195835;23;20158;-71
2023/03/09 08:40:40;;;;;;;3.20;3.10;;;5.30;99.90;7.40;99412.00;;;;6195734;23;20165;-71
2023/03/09 08:43:11;;;;;;;4.63;4.43;;;5.40;99.90;8.00;99408.00;;;;6220849;23;20167;-71
2023/03/09 08:45:42;;;;;;;3.97;3.87;;;5.70;99.90;8.60;99411.00;;;;6195102;23;20156;-71
2023/03/09 08:48:14;;;;;;;5.30;5.20;;;6.00;99.90;8.80;99420.00;;;;6220499;23;20167;-71
2023/03/09 08:50:42;;;;;;;5.43;5.23;;;6.20;99.90;7.90;99437.00;;;;6194640;23;20168;-71
2023/03/09 08:53:11;;;;;;;4.73;4.63;;;6.20;99.90;7.50;99415.00;;;;6195435;23;20163;-71
2023/03/09 08:55:45;;;;;;;4.30;4.20;;;5.70;99.90;8.00;99438.00;;;;6195067;23;20153;-71
2023/03/09 08:58:19;;;;;;;4.00;3.90;;;5.90;99.90;7.50;99417.00;;;;6220738;23;20674;-71
2023/03/09 09:00:48;;;;;;;4.60;4.50;;;5.70;99.90;8.60;99441.00;;;;6220231;23;20149;-71
2023/03/09 09:03:19;;;;;;;5.57;5.40;;;6.10;99.90;7.90;99384.00;;;;6219934;23;20195;-71
2023/03/09 09:05:49;;;;;;;5.07;4.87;;;5.90;99.90;7.90;99437.00;;;;6220314;23;20142;-71
2023/03/09 09:08:21;;;;;;;5.13;4.97;;;5.90;99.90;8.90;99440.00;;;;6219814;23;20150;-71
2023/03/09 09:10:58;;;;;;;7.33;6.87;;;6.20;99.90;8.70;99429.00;;;;6194919;23;20160;-71
2023/03/09 09:13:27;;;;;;;6.23;5.93;;;6.30;99.90;8.60;99426.00;;;;6196700;23;20654;-71
2023/03/09 09:16:01;;;;;;;4.20;4.10;;;6.20;99.90;8.80;99435.00;;;;6193091;23;20251;-71
2023/03/09 09:18:32;;;;;;;4.73;4.63;;;6.30;99.90;9.20;99446.00;;;;6195499;23;20527;-71
2023/03/09 09:21:09;;;;;;;5.13;5.00;;;6.40;99.90;8.70;99466.00;;;;6194645;23;20161;-72
2023/03/09 09:23:37;;;;;;;5.63;5.43;;;6.40;99.90;8.40;99448.00;;;;6195154;23;20190;-71
2023/03/09 09:26:11;;;;;;;4.90;4.80;;;6.20;99.90;8.00;99443.00;;;;6194782;23;20153;-71
2023/03/09 09:28:43;;;;;;;6.03;5.83;;;6.00;99.90;8.60;99431.00;;;;6194726;23;20471;-71
2023/03/09 09:31:19;;;;;;;9.30;8.80;;;6.10;99.90;8.40;99437.00;;;;6195495;23;20600;-72
2023/03/09 09:33:49;;;;;;;7.70;7.40;;;6.20;99.90;8.20;99422.00;;;;6194154;23;20582;-72
2023/03/09 09:36:22;;;;;;;4.77;4.67;;;6.00;99.90;8.00;99432.00;;;;6240853;22;20637;-72
2023/03/09 09:38:52;;;;;;;5.87;5.67;;;6.00;99.90;9.20;99441.00;;;;6224666;22;20153;-72
2023/03/09 09:41:24;;;;;;;4.47;4.33;;;6.40;99.90;8.40;99441.00;;;;6250312;22;20220;-71
2023/03/09 09:44:01;;;;;;;3.30;3.20;;;6.30;99.90;7.90;99433.00;;;;6249749;22;20205;-71
2023/03/09 09:46:36;;;;;;;3.47;3.37;;;6.00;99.90;7.70;99407.00;;;;6224650;22;20149;-71
2023/03/09 09:49:13;;;;;;;3.93;3.73;;;5.80;99.90;8.40;99434.00;;;;6249823;22;20151;-71
2023/03/09 09:52:06;;;;;;;4.37;4.17;;;6.00;99.90;7.90;99443.00;;;;6224663;22;20186;-71
2023/03/09 09:55:19;;;;;;;3.00;2.90;;;6.00;99.90;7.60;99446.00;;;;6249576;22;20159;-70
2023/03/09 09:58:32;;;;;;;2.80;2.70;;;5.90;99.90;7.80;99445.00;;;;6249851;22;20164;-71
2023/03/09 10:01:06;;;;;;;3.20;3.10;;;5.80;99.90;8.40;99440.00;;;;6249363;22;20210;-71
2023/03/09 10:03:46;;;;;;;3.40;3.30;;;6.10;99.90;8.20;99435.00;;;;6249441;22;20181;-70
2023/03/09 10:06:24;;;;;;;4.20;4.03;;;6.10;99.90;8.50;99439.00;;;;6249297;22;20155;-71
2023/03/09 10:09:01;;;;;;;3.20;3.10;;;6.20;99.90;8.30;99405.00;;;;6249438;22;20140;-71
2023/03/09 10:11:43;;;;;;;3.23;3.13;;;6.20;99.90;8.00;99398.00;;;;6276870;22;20139;-71
2023/03/09 10:14:29;;;;;;;5.17;4.87;;;6.20;99.90;8.60;99420.00;;;;6249788;22;20285;-71
2023/03/09 10:17:50;;;;;;;2.83;2.73;;;6.30;99.90;8.60;99422.00;;;;6249185;22;20159;-71
2023/03/09 10:20:43;;;;;;;3.27;3.17;;;6.30;99.90;9.40;99428.00;;;;6261175;22;20494;-71
2023/03/09 10:33:51;;;;;;;2.73;2.63;;;5.10;99.90;6.80;99407.00;;;;5070251;28;20556;-72
2023/03/09 10:36:36;;;;;;;2.63;2.50;;;5.30;99.90;7.00;99395.00;;;;5027007;28;20572;-72
2023/03/09 10:39:21;;;;;;;2.43;2.23;;;5.60;99.90;7.70;99385.00;;;;5049240;28;20212;-71
2023/03/09 10:41:56;;;;;;;1.90;1.90;;;5.80;99.90;7.90;99390.00;;;;5032904;28;20604;-69
2023/03/09 10:44:25;;;;;;;2.93;2.73;;;6.00;99.90;8.40;99385.00;;;;5032100;28;20258;-71
2023/03/09 10:47:04;;;;;;;3.10;3.00;;;6.30;99.90;8.10;99355.00;;;;5048317;28;20263;-71
2023/03/09 10:49:32;;;;;;;3.50;3.40;;;6.20;99.90;8.50;99384.00;;;;5045037;28;20182;-69
2023/03/09 10:52:10;;;;;;;3.40;3.30;;;6.30;99.90;8.20;99390.00;;;;5048477;28;20211;-69
2023/03/09 10:54:40;;;;;;;2.20;2.20;;;6.40;99.90;8.10;99391.00;;;;5032537;28;20197;-69
2023/03/09 10:57:22;;;;;;;4.03;3.83;;;6.10;99.90;8.40;99404.00;;;;5027046;28;20605;-70
2023/03/09 11:00:11;;;;;;;6.83;6.43;;;6.20;99.90;8.80;99402.00;;;;5062000;28;20178;-70
2023/03/09 11:02:52;;;;;;;6.40;4.43;;;6.50;99.90;8.90;99402.00;;;;5048299;28;20199;-70
2023/03/09 11:05:26;;;;;;;6.33;5.93;;;6.60;99.90;8.40;99385.00;;;;5048270;28;20832;-68
2023/03/09 11:07:58;;;;;;;4.33;4.03;;;6.50;99.90;8.90;99386.00;;;;5030033;28;20181;-69
2023/03/09 11:10:41;;;;;;;5.17;4.73;;;6.60;99.90;9.00;99352.00;;;;5048315;28;20193;-69
2023/03/09 11:13:19;;;;;;;3.40;3.30;;;6.70;99.90;8.70;99389.00;;;;5029804;28;20213;-69
2023/03/09 11:16:16;;;;;;;4.30;4.20;;;6.60;99.90;9.00;99393.00;;;;5048079;28;20287;-69
2023/03/09 11:18:45;;;;;;;7.03;6.53;;;6.80;99.90;8.10;99363.00;;;;5048532;28;20201;-69
2023/03/09 11:21:34;;;;;;;4.53;4.43;;;6.40;99.90;7.50;99352.00;;;;5032051;28;20196;-69
2023/03/09 11:24:03;;;;;;;9.27;7.20;;;6.20;99.90;7.30;99361.00;;;;5068030;28;20183;-69
2023/03/09 11:26:51;;;;;;;4.53;4.23;;;6.20;99.90;7.80;99355.00;;;;5048044;28;20269;-68
2023/03/09 11:29:59;;;;;;;7.33;6.63;;;6.10;99.90;7.30;99367.00;;;;5031187;28;20264;-68
2023/03/09 11:32:28;;;;;;;4.10;3.90;;;6.00;99.90;7.70;99367.00;;;;5047615;28;20218;-69
2023/03/09 11:34:59;;;;;;;4.03;3.93;;;6.10;99.90;7.10;99362.00;;;;5048152;28;20178;-69
2023/03/09 11:37:52;;;;;;;5.10;4.80;;;6.00;99.90;7.00;99333.00;;;;5046750;28;20549;-69
2023/03/09 11:40:21;;;;;;;5.30;4.53;;;5.80;99.90;6.80;99354.00;;;;5031377;28;20542;-69
2023/03/09 11:42:55;;;;;;;3.63;3.43;;;5.80;99.90;8.20;99357.00;;;;5026729;28;20622;-69
2023/03/09 11:45:41;;;;;;;3.37;3.17;;;6.00;99.90;7.20;99354.00;;;;5031734;28;20212;-69
2023/03/09 11:48:33;;;;;;;2.22;2.22;;;5.90;99.90;8.20;99326.00;;;;5016543;28;20851;-69
2023/03/09 11:51:14;;;;;;;3.03;2.83;;;6.10;99.90;7.80;99353.00;;;;5035596;28;20709;-69
2023/03/09 11:54:11;;;;;;;5.90;5.23;;;6.00;99.90;7.80;99351.00;;;;5034798;28;20207;-69
2023/03/09 11:56:51;;;;;;;5.57;5.03;;;6.20;99.90;7.20;99343.00;;;;5018036;28;20246;-68
2023/03/09 11:59:40;;;;;;;2.20;2.10;;;6.10;99.90;8.20;99346.00;;;;5013746;28;20633;-69
2023/03/09 12:02:22;;;;;;;3.37;3.17;;;6.20;99.90;8.00;99332.00;;;;5034502;28;20187;-69
2023/03/09 12:04:51;;;;;;;1.93;1.93;;;6.40;99.90;8.40;99333.00;;;;5023415;28;20625;-70
2023/03/09 12:07:31;;;;;;;2.47;2.40;;;6.40;99.90;7.30;99336.00;;;;5035132;28;20645;-69
2023/03/09 12:10:21;;;;;;;1.50;1.50;;;6.30;99.90;7.50;99344.00;;;;5033953;28;20524;-69
2023/03/09 12:13:13;;;;;;;1.97;1.97;;;6.10;99.90;8.80;99329.00;;;;5012744;28;20632;-69
2023/03/09 12:16:02;;;;;;;5.70;5.30;;;6.30;99.90;8.30;99328.00;;;;5017255;28;20197;-69
2023/03/09 12:18:45;;;;;;;6.87;6.40;;;6.50;99.90;8.60;99326.00;;;;5033980;28;20197;-70
2023/03/09 12:21:14;;;;;;;4.83;4.63;;;6.60;99.90;8.70;99326.00;;;;5017535;28;20182;-70
2023/03/09 12:23:44;;;;;;;2.67;2.57;;;6.60;99.90;8.30;99326.00;;;;5034993;28;20189;-69
2023/03/09 12:26:32;;;;;;;7.33;5.80;;;6.60;99.90;8.30;99327.00;;;;5017421;28;20196;-70
2023/03/09 12:29:12;;;;;;;2.30;2.20;;;6.50;99.90;9.10;99322.00;;;;5024637;28;20196;-70
2023/03/09 12:31:39;;;;;;;1.70;1.70;;;6.80;99.90;8.40;99316.00;;;;5039623;28;20217;-70
2023/03/09 12:34:27;;;;;;;3.60;3.50;;;6.70;99.90;9.10;99312.00;;;;5033313;28;20657;-70
2023/03/09 12:37:28;;;;;;;4.30;3.90;;;7.00;99.90;9.30;99288.00;;;;5016678;28;20278;-69
2023/03/09 12:40:16;;;;;;;6.37;5.80;;;7.10;99.90;9.20;99315.00;;;;5033766;28;20193;-70
2023/03/09 12:42:49;;;;;;;1.90;1.90;;;7.30;99.90;9.00;99300.00;;;;5020593;28;20256;-69
2023/03/09 12:45:21;;;;;;;1.90;1.90;;;7.20;99.90;9.60;99254.00;;;;5033437;28;20187;-70
2023/03/09 12:48:11;;;;;;;5.33;3.60;;;7.50;99.90;9.00;99281.00;;;;5033412;28;20183;-70
2023/03/09 12:50:45;;;;;;;2.97;2.77;;;7.60;99.90;8.80;99249.00;;;;5035093;28;20175;-71
2023/03/09 12:53:14;;;;;;;2.20;2.13;;;7.40;99.90;9.70;99281.00;;;;5031418;28;20752;-71
2023/03/09 12:55:40;;;;;;;2.73;2.53;;;7.70;99.90;9.90;99278.00;;;;5032095;28;20187;-72
2023/03/09 12:58:19;;;;;;;2.13;2.13;;;7.90;99.90;9.60;99270.00;;;;5032889;28;20279;-71
2023/03/09 13:01:10;;;;;;;4.03;3.83;;;7.90;99.90;9.80;99269.00;;;;5033465;28;20191;-71
2023/03/09 13:03:49;;;;;;;2.60;2.43;;;7.90;99.90;9.90;99268.00;;;;5013645;28;20191;-71
2023/03/09 13:06:33;;;;;;;3.67;3.37;;;7.90;99.90;9.40;99252.00;;;;5041767;28;20200;-71
2023/03/09 13:09:07;;;;;;;3.37;3.17;;;7.70;99.90;10.10;99253.00;;;;5022339;28;20219;-70
2023/03/09 13:11:44;;;;;;;2.87;2.77;;;8.00;99.90;10.70;99254.00;;;;5016635;28;20684;-70
2023/03/09 13:14:18;;;;;;;3.90;3.30;;;8.30;99.90;10.20;99244.00;;;;5032563;28;20676;-70
2023/03/09 13:16:47;;;;;;;5.73;5.43;;;8.20;99.90;10.20;99249.00;;;;5033142;28;20179;-69
2023/03/09 13:19:23;;;;;;;1.80;1.80;;;8.30;99.90;10.20;99225.00;;;;5016573;28;20194;-70
2023/03/09 13:21:57;;;;;;;2.40;2.30;;;8.20;99.90;10.80;99249.00;;;;5034062;28;20219;-71
2023/03/09 13:24:35;;;;;;;1.93;1.90;;;8.50;99.90;10.80;99253.00;;;;5031574;28;20193;-70
2023/03/09 13:27:12;;;;;;;2.87;2.77;;;8.50;99.90;10.30;99251.00;;;;5032805;28;20543;-70
2023/03/09 13:29:54;;;;;;;2.33;2.23;;;8.50;99.90;10.20;99241.00;;;;5025308;28;20244;-70
2023/03/09 13:32:39;;;;;;;2.23;2.20;;;8.50;99.90;10.80;99253.00;;;;5032391;28;20265;-70
2023/03/09 13:35:23;;;;;;;2.10;2.10;;;8.50;99.90;11.10;99254.00;;;;5025047;28;20614;-70
2023/03/09 13:37:52;;;;;;;2.10;2.10;;;8.80;99.90;11.80;99247.00;;;;5028868;28;20247;-70
2023/03/09 13:40:33;;;;;;;4.13;3.93;;;9.00;99.90;11.10;99237.00;;;;5032563;28;20237;-70
2023/03/09 13:43:16;;;;;;;2.60;2.50;;;9.20;99.90;12.00;99262.00;;;;5015650;28;20665;-70
2023/03/09 13:46:23;;;;;;;3.53;3.23;;;9.50;99.90;10.80;99234.00;;;;5003389;28;20193;-70
2023/03/09 13:48:54;;;;;;;3.60;3.30;;;9.50;99.90;10.10;99235.00;;;;5000983;28;20682;-70
2023/03/09 13:51:35;;;;;;;1.87;1.87;;;8.90;99.90;11.00;99232.00;;;;5014737;28;20584;-71
2023/03/09 13:54:01;;;;;;;2.33;2.23;;;9.20;99.90;11.00;99241.00;;;;5030482;28;20649;-70
2023/03/09 13:56:28;;;;;;;2.30;2.20;;;9.30;99.90;11.40;99230.00;;;;5032079;28;20201;-71
2023/03/09 13:58:55;;;;;;;2.00;2.00;;;9.40;99.90;12.00;99233.00;;;;5015923;28;20183;-70
2023/03/09 14:01:24;;;;;;;2.60;2.50;;;9.70;99.90;12.50;99222.00;;;;5031010;28;20188;-71
2023/03/09 14:03:58;;;;;;;3.10;3.00;;;10.00;99.90;12.70;99222.00;;;;5032211;28;20185;-71
2023/03/09 14:06:34;;;;;;;3.83;3.73;;;10.30;99.90;12.90;99218.00;;;;5031754;28;20193;-71
2023/03/09 14:09:18;;;;;;;2.53;2.43;;;10.40;99.90;12.90;99176.00;;;;5029787;28;20186;-71
2023/03/09 14:11:52;;;;;;;2.53;2.43;;;10.60;99.90;12.60;99197.00;;;;5032010;28;20210;-71
2023/03/09 14:14:24;;;;;;;3.03;2.93;;;10.60;99.90;12.50;99195.00;;;;5015218;28;20641;-71
2023/03/09 14:16:52;;;;;;;4.77;4.40;;;10.70;99.90;12.90;99161.00;;;;5032138;28;20195;-71
2023/03/09 14:19:39;;;;;;;2.50;2.40;;;10.80;99.90;13.10;99188.00;;;;5032512;28;20206;-72
2023/03/09 14:22:17;;;;;;;1.97;1.97;;;11.00;99.90;13.10;99182.00;;;;5019523;28;20224;-71
2023/03/09 14:24:43;;;;;;;2.47;2.37;;;11.00;99.90;12.90;99175.00;;;;5029184;28;20217;-72
2023/03/09 14:27:22;;;;;;;3.30;3.10;;;11.10;99.90;13.40;99178.00;;;;5020553;28;20716;-71
2023/03/09 14:29:48;;;;;;;2.43;2.27;;;11.10;99.90;13.90;99160.00;;;;5032889;28;20214;-71
2023/03/09 14:32:31;;;;;;;3.87;3.47;;;11.30;99.90;13.90;99175.00;;;;5031605;28;20219;-72
2023/03/09 14:35:23;;;;;;;1.90;1.90;;;11.50;99.90;13.90;99174.00;;;;5021541;28;20200;-71
2023/03/09 14:37:59;;;;;;;2.10;2.07;;;11.80;99.90;14.00;99161.00;;;;5032471;28;20250;-70
2023/03/09 14:40:31;;;;;;;3.13;2.93;;;11.80;99.90;14.60;99164.00;;;;5048109;28;20191;-72
2023/03/09 14:43:19;;;;;;;2.07;2.07;;;11.90;99.90;14.60;99162.00;;;;5015316;28;20324;-71
2023/03/09 14:46:06;;;;;;;2.20;2.17;;;12.20;99.90;14.70;99151.00;;;;5058226;28;20185;-69
2023/03/09 14:48:35;;;;;;;4.60;4.17;;;12.00;99.90;15.00;99153.00;;;;5031870;28;20185;-70
2023/03/09 14:51:11;;;;;;;2.10;2.10;;;12.40;99.90;14.60;99147.00;;;;5031623;28;20181;-70
2023/03/09 14:53:54;;;;;;;2.00;2.00;;;12.40;99.90;14.50;99144.00;;;;5030921;28;20323;-69
2023/03/09 14:56:25;;;;;;;3.40;3.10;;;12.30;99.90;14.40;99122.00;;;;5029195;28;20183;-69
2023/03/09 14:58:53;;;;;;;2.63;2.43;;;12.30;99.90;14.40;99125.00;;;;5031547;28;20186;-69
2023/03/09 15:01:21;;;;;;;2.53;2.43;;;12.30;99.90;14.10;99110.00;;;;5031655;28;20190;-70
2023/03/09 15:03:53;;;;;;;1.70;1.70;;;12.30;99.90;14.40;99117.00;;;;5019185;28;20184;-70
2023/03/09 15:06:22;;;;;;;1.60;1.60;;;12.30;99.90;14.80;99104.00;;;;5010990;28;20664;-70
2023/03/09 15:08:48;;;;;;;1.90;1.90;;;12.40;99.90;14.80;99105.00;;;;5042366;28;20195;-70
2023/03/09 15:11:16;;;;;;;1.60;1.60;;;12.50;99.90;14.70;99100.00;;;;5032387;28;20183;-70
2023/03/09 15:13:45;;;;;;;2.07;1.97;;;12.50;99.90;14.50;99063.00;;;;5031647;28;20211;-70
2023/03/09 15:16:15;;;;;;;1.70;1.67;;;12.50;99.90;14.40;99093.00;;;;5046214;28;20222;-70
2023/03/09 15:18:48;;;;;;;1.50;1.50;;;12.50;99.90;14.20;99080.00;;;;5029544;28;20181;-70
2023/03/09 15:21:19;;;;;;;1.53;1.43;;;12.40;99.90;14.20;99080.00;;;;5028758;28;20192;-70
2023/03/09 15:23:48;;;;;;;1.03;1.03;;;12.40;99.90;15.10;99076.00;;;;5035096;28;20700;-70
2023/03/09 15:26:14;;;;;;;1.40;1.40;;;12.70;99.90;15.20;99081.00;;;;5033791;28;20198;-69
2023/03/09 15:28:40;;;;;;;1.43;1.43;;;12.90;99.90;14.90;99074.00;;;;5021473;28;20179;-70
2023/03/09 15:31:12;;;;;;;0.70;0.70;;;13.00;99.90;14.40;99065.00;;;;5016022;28;20198;-70
2023/03/09 15:33:41;;;;;;;0.87;0.87;;;12.80;99.90;14.80;99063.00;;;;5035041;28;20179;-70
2023/03/09 15:36:11;;;;;;;1.77;1.13;;;12.90;99.90;14.40;99055.00;;;;5034377;28;20229;-70
2023/03/09 15:38:37;;;;;;;0.80;0.80;;;12.90;99.90;15.00;99069.00;;;;5035115;28;20183;-71
2023/03/09 15:41:06;;;;;;;0.60;0.60;;;13.00;99.90;14.50;99047.00;;;;5034973;28;20183;-70
2023/03/09 15:43:32;;;;;;;4.57;0.90;;;12.90;99.90;14.40;99049.00;;;;5015573;28;20222;-71
2023/03/09 15:46:10;;;;;;;1.80;0.93;;;12.80;99.90;14.40;99003.00;;;;5034549;28;20182;-71
2023/03/09 15:48:41;;;;;;;1.33;0.93;;;12.80;99.90;14.10;99033.00;;;;5034903;28;20184;-71
2023/03/09 15:51:11;;;;;;;0.70;0.70;;;12.70;99.90;14.70;99001.00;;;;5017972;28;20179;-71
2023/03/09 15:53:43;;;;;;;0.60;0.60;;;12.80;99.90;14.40;99027.00;;;;5034698;28;20245;-72
2023/03/09 15:56:15;;;;;;;1.33;1.10;;;12.80;99.90;14.40;99033.00;;;;5021107;28;20252;-71
2023/03/09 15:58:41;;;;;;;5.63;1.63;;;12.80;99.90;14.30;99024.00;;;;5021359;28;20194;-73
2023/03/09 16:01:17;;;;;;;0.90;0.90;;;12.70;99.90;13.70;99025.00;;;;5032918;28;20187;-71
2023/03/09 16:03:45;;;;;;;0.93;0.70;;;12.50;99.90;13.80;99016.00;;;;5035606;28;20277;-71
2023/03/09 16:06:17;;;;;;;0.60;0.60;;;12.40;99.90;13.80;99032.00;;;;5035521;28;20185;-71
2023/03/09 16:08:48;;;;;;;0.60;0.60;;;12.40;99.90;13.60;99032.00;;;;5019870;28;20722;-71
2023/03/09 16:11:20;;;;;;;1.50;1.40;;;12.20;99.90;13.10;99036.00;;;;5034450;28;20221;-70
2023/03/09 16:13:46;;;;;;;1.90;1.80;;;11.90;99.90;13.70;99047.00;;;;5020456;28;20209;-69
2023/03/09 16:16:19;;;;;;;1.90;1.90;;;11.90;99.90;13.30;99047.00;;;;5015334;28;20192;-68
2023/03/09 16:18:48;;;;;;;1.50;1.50;;;11.80;99.90;13.50;99042.00;;;;5029934;28;20197;-69
2023/03/09 16:21:14;;;;;;;2.00;2.00;;;11.80;99.90;13.90;99031.00;;;;5017255;28;20602;-69
2023/03/09 16:23:43;;;;;;;1.97;1.97;;;11.80;99.90;13.80;99015.00;;;;5033634;28;20184;-69
2023/03/09 16:26:17;;;;;;;2.40;2.40;;;11.90;99.90;13.90;99019.00;;;;5016803;28;20186;-69
2023/03/09 16:28:49;;;;;;;2.60;2.50;;;11.70;99.90;14.50;99003.00;;;;5014439;28;20250;-69
2023/03/09 16:31:23;;;;;;;2.80;2.70;;;11.90;99.90;15.10;98999.00;;;;5050910;28;20552;-69
2023/03/09 16:33:54;;;;;;;3.60;3.50;;;12.20;99.90;15.40;98993.00;;;;5033390;28;20209;-69
2023/03/09 16:36:23;;;;;;;3.20;3.10;;;12.50;99.90;15.40;98998.00;;;;5027786;28;20185;-69
2023/03/09 16:38:54;;;;;;;3.73;3.63;;;12.60;99.90;15.50;98957.00;;;;5033605;28;20190;-69
2023/03/09 16:41:24;;;;;;;3.60;3.50;;;12.60;99.90;15.20;98972.00;;;;5033567;28;20235;-69
2023/03/09 16:43:52;;;;;;;4.30;4.20;;;12.50;99.90;15.40;98938.00;;;;5019175;28;20205;-69
2023/03/09 16:46:25;;;;;;;3.60;3.50;;;12.50;99.90;14.80;98964.00;;;;5032622;28;20195;-69
2023/03/09 16:49:00;;;;;;;3.80;3.70;;;12.60;99.90;15.30;98959.00;;;;5049747;28;20276;-69
2023/03/09 16:51:26;;;;;;;4.30;4.20;;;12.50;99.90;15.40;98961.00;;;;5033983;28;20185;-69
2023/03/09 16:54:01;;;;;;;4.63;4.53;;;12.50;99.90;15.40;98969.00;;;;5017510;28;20186;-69
2023/03/09 16:56:28;;;;;;;4.50;4.40;;;12.50;99.90;16.10;98979.00;;;;5022979;28;20188;-68
2023/03/09 16:58:56;;;;;;;4.80;4.70;;;12.90;99.90;15.90;98983.00;;;;5016831;28;20185;-69
2023/03/09 17:01:27;;;;;;;4.90;4.80;;;13.00;99.90;15.50;98973.00;;;;5034231;28;20235;-69
2023/03/09 17:03:53;;;;;;;3.50;3.40;;;13.00;99.90;14.40;98965.00;;;;5032800;28;20192;-68
2023/03/09 17:06:23;;;;;;;2.20;2.20;;;12.50;99.90;13.20;98975.00;;;;5016433;28;20185;-69
2023/03/09 17:08:56;;;;;;;2.97;2.77;;;11.80;99.90;13.60;98980.00;;;;5032989;28;20192;-68
2023/03/09 17:11:22;;;;;;;2.10;2.10;;;11.70;99.90;13.90;98982.00;;;;5033258;28;20190;-69
2023/03/09 17:13:54;;;;;;;2.70;2.60;;;11.70;99.90;14.40;98944.00;;;;5017977;28;20192;-69
2023/03/09 17:16:20;;;;;;;2.93;2.83;;;11.90;99.90;13.60;98943.00;;;;5033039;28;20642;-69
2023/03/09 17:18:54;;;;;;;2.43;2.40;;;11.80;99.90;13.50;98970.00;;;;5047796;28;20194;-70
2023/03/09 17:21:27;;;;;;;2.33;2.33;;;11.80;99.90;13.10;98977.00;;;;5032854;28;20192;-70
2023/03/09 17:23:59;;;;;;;2.30;2.30;;;11.60;99.90;13.40;98975.00;;;;5017201;28;20246;-70
2023/03/09 17:26:28;;;;;;;2.50;2.33;;;11.50;99.90;13.90;98964.00;;;;5031120;28;20191;-70
2023/03/09 17:28:59;;;;;;;2.03;1.93;;;11.70;99.90;13.20;98948.00;;;;5022648;28;20184;-70
2023/03/09 17:31:28;;;;;;;2.10;2.10;;;11.50;99.90;13.30;98960.00;;;;5033188;28;20206;-70
2023/03/09 17:33:55;;;;;;;2.10;2.10;;;11.50;99.90;12.80;98958.00;;;;5026395;28;20219;-69
2023/03/09 17:36:25;;;;;;;2.40;2.10;;;11.40;99.90;12.60;98955.00;;;;5032485;28;20230;-70
2023/03/09 17:38:55;;;;;;;1.60;1.60;;;11.30;99.90;13.20;98952.00;;;;5021819;28;20281;-70
2023/03/09 17:41:22;;;;;;;2.43;2.37;;;11.40;99.90;13.50;98946.00;;;;5026261;28;20267;-71
2023/03/09 17:43:55;;;;;;;1.50;1.50;;;11.40;99.90;13.10;98937.00;;;;5024322;28;20233;-70
2023/03/09 17:46:32;;;;;;;1.40;1.40;;;11.40;99.90;13.10;98931.00;;;;5022438;28;20218;-70
2023/03/09 17:49:00;;;;;;;4.83;2.27;;;11.40;99.90;12.90;98927.00;;;;5032443;28;20189;-70
2023/03/09 17:51:31;;;;;;;1.77;1.77;;;11.40;99.90;13.20;98922.00;;;;5032269;28;20598;-70
2023/03/09 17:54:00;;;;;;;1.87;1.87;;;11.40;99.90;13.40;98922.00;;;;5015922;28;20184;-70
2023/03/09 17:56:29;;;;;;;3.60;2.73;;;11.40;99.90;13.00;98887.00;;;;5031492;28;20184;-70
2023/03/09 17:59:04;;;;;;;2.37;1.83;;;11.40;99.90;12.70;98929.00;;;;5032228;28;20188;-70
2023/03/09 18:01:30;;;;;;;2.33;2.13;;;11.30;99.90;12.70;98935.00;;;;5029067;28;20188;-72
2023/03/09 18:04:03;;;;;;;2.60;2.37;;;11.30;99.90;12.70;98918.00;;;;5015712;28;20191;-71
2023/03/09 18:06:32;;;;;;;2.23;2.13;;;11.30;99.90;12.90;98891.00;;;;5031982;28;20656;-71
2023/03/09 18:09:04;;;;;;;2.43;2.27;;;11.30;99.90;12.70;98918.00;;;;5032219;28;20184;-71
2023/03/09 18:11:36;;;;;;;1.50;1.50;;;11.30;99.90;13.10;98916.00;;;;5025344;28;20572;-71
2023/03/09 18:14:22;;;;;;;2.13;2.03;;;11.30;99.90;13.10;98906.00;;;;5015942;28;20200;-70
2023/03/09 18:17:04;;;;;;;1.67;1.67;;;11.40;99.90;13.50;98900.00;;;;5030791;28;20250;-70
2023/03/09 18:19:36;;;;;;;2.20;2.10;;;11.50;99.90;13.30;98898.00;;;;5022217;28;20715;-71
2023/03/09 18:22:04;;;;;;;4.63;2.00;;;11.50;99.90;13.30;98881.00;;;;5025302;28;20203;-70
2023/03/09 18:24:30;;;;;;;1.53;1.53;;;11.40;99.90;13.50;98854.00;;;;5032264;28;20182;-71
2023/03/09 18:27:01;;;;;;;1.70;1.70;;;11.50;99.90;13.10;98870.00;;;;5032693;28;20189;-70
2023/03/09 18:29:31;;;;;;;1.67;1.67;;;11.40;99.90;13.50;98862.00;;;;5015406;28;20278;-70
2023/03/09 18:32:03;;;;;;;1.70;1.70;;;11.50;99.90;13.30;98862.00;;;;5018314;28;20292;-70
2023/03/09 18:34:40;;;;;;;1.60;1.60;;;11.50;99.90;13.30;98852.00;;;;5031821;28;20187;-70
2023/03/09 18:37:09;;;;;;;1.70;1.70;;;11.40;99.90;13.20;98832.00;;;;5031765;28;20265;-69
2023/03/09 18:39:35;;;;;;;1.60;1.60;;;11.40;99.90;12.80;98845.00;;;;5023677;28;20632;-69
2023/03/09 18:42:01;;;;;;;1.83;1.73;;;11.30;99.90;12.80;98843.00;;;;5031401;28;20211;-69
2023/03/09 18:44:27;;;;;;;2.00;2.00;;;11.20;99.90;13.00;98847.00;;;;5031511;28;20189;-70
2023/03/09 18:46:56;;;;;;;1.40;1.40;;;11.30;99.90;13.10;98839.00;;;;5036417;28;20647;-70
2023/03/09 18:49:22;;;;;;;1.60;1.60;;;11.30;99.90;13.10;98830.00;;;;5031850;28;20263;-70
2023/03/09 18:51:51;;;;;;;1.30;1.30;;;11.30;99.90;13.00;98819.00;;;;5014850;28;20809;-70
2023/03/09 18:54:17;;;;;;;1.10;1.10;;;11.30;99.90;12.80;98792.00;;;;5033905;28;20335;-70
2023/03/09 18:57:02;;;;;;;1.20;1.20;;;11.20;99.90;13.00;98827.00;;;;5035617;28;20183;-70
2023/03/09 18:59:32;;;;;;;1.77;1.77;;;11.20;99.90;13.10;98816.00;;;;5023501;28;20195;-70
2023/03/09 19:02:15;;;;;;;1.93;1.83;;;11.30;99.90;13.10;98806.00;;;;5034664;28;20288;-70
2023/03/09 19:04:44;;;;;;;1.43;1.43;;;11.30;99.90;13.30;98782.00;;;;5025984;28;20706;-71
2023/03/09 19:07:21;;;;;;;1.33;1.33;;;11.40;99.90;12.90;98795.00;;;;5028950;28;20602;-70
2023/03/09 19:09:54;;;;;;;1.50;1.50;;;11.30;99.90;12.90;98786.00;;;;5035322;28;20238;-71
2023/03/09 19:12:37;;;;;;;1.73;1.63;;;11.30;99.90;12.90;98743.00;;;;5021279;28;20338;-71
2023/03/09 19:15:09;;;;;;;1.50;1.47;;;11.20;99.90;12.70;98775.00;;;;5033167;28;20180;-73
2023/03/09 19:17:38;;;;;;;1.90;1.90;;;11.30;99.90;12.80;98769.00;;;;5018795;28;20241;-73
2023/03/09 19:20:10;;;;;;;3.20;2.60;;;11.30;99.90;12.80;98765.00;;;;5019031;28;20185;-73